Wetterdaten: aktuell Donnerstag, 25.04.2019 20:05
Datum Zeit Temp. I. Temp. A. Feuchte I. Feuchte A. Luftdruck Regen Wind Richtung Richtung Taupunkt Windchill Windben
25.04.2019 20:05 26,4 C 19,3 C 33 % 53 % 1004,3 hPa 0,0 l/m 30,6 km/h W-SW 247 9,5 C 13,7 C 43,5 km/h
25.04.2019 20:00 27,0 C 19,8 C 32 % 53 % 1004,0 hPa 0,0 l/m 32,2 km/h W 270 9,9 C 14,2 C 43,5 km/h
25.04.2019 19:55 27,4 C 20,4 C 31 % 50 % 1004,0 hPa 0,0 l/m 22,5 km/h W-SW 247 9,6 C 16,3 C 33,8 km/h
25.04.2019 19:50 27,8 C 21,4 C 30 % 46 % 1003,9 hPa 0,0 l/m 22,5 km/h W-SW 247 9,3 C 17,6 C 30,6 km/h
25.04.2019 19:45 28,0 C 22,5 C 29 % 41 % 1003,8 hPa 0,0 l/m 8,0 km/h S 180 8,6 C 22,0 C 20,9 km/h
25.04.2019 19:40 28,2 C 22,6 C 28 % 39 % 1003,8 hPa 0,0 l/m 4,8 km/h O-SO 112 7,9 C 22,6 C 6,4 km/h
25.04.2019 19:35 28,3 C 22,6 C 28 % 38 % 1003,7 hPa 0,0 l/m 4,8 km/h O-SO 112 7,6 C 22,6 C 6,4 km/h
25.04.2019 19:30 28,6 C 22,6 C 28 % 38 % 1003,6 hPa 0,0 l/m 6,4 km/h O-SO 112 7,6 C 22,6 C 8,0 km/h
25.04.2019 19:25 28,7 C 22,6 C 28 % 37 % 1003,7 hPa 0,0 l/m 6,4 km/h O-SO 112 7,2 C 22,6 C 11,3 km/h
25.04.2019 19:20 28,9 C 22,7 C 28 % 37 % 1003,4 hPa 0,0 l/m 9,7 km/h O-SO 112 7,3 C 21,7 C 12,9 km/h
25.04.2019 19:15 29,1 C 22,7 C 28 % 37 % 1003,5 hPa 0,0 l/m 9,7 km/h O-SO 112 7,3 C 21,7 C 14,5 km/h
25.04.2019 19:10 29,2 C 22,7 C 28 % 38 % 1003,5 hPa 0,0 l/m 9,7 km/h O-SO 112 7,6 C 21,7 C 14,5 km/h
25.04.2019 19:05 29,4 C 22,7 C 28 % 38 % 1003,6 hPa 0,0 l/m 14,5 km/h O-SO 112 7,6 C 20,6 C 20,9 km/h
25.04.2019 19:00 29,5 C 22,8 C 28 % 37 % 1003,6 hPa 0,0 l/m 14,5 km/h O-SO 112 7,3 C 20,7 C 19,3 km/h
25.04.2019 18:55 29,6 C 22,8 C 28 % 38 % 1003,7 hPa 0,0 l/m 12,9 km/h O-SO 112 7,7 C 21,1 C 17,7 km/h
25.04.2019 18:50 29,7 C 22,9 C 28 % 38 % 1003,8 hPa 0,0 l/m 14,5 km/h O-SO 112 7,8 C 20,9 C 19,3 km/h
25.04.2019 18:45 29,8 C 22,9 C 28 % 37 % 1003,8 hPa 0,0 l/m 14,5 km/h O-SO 112 7,4 C 20,9 C 20,9 km/h
25.04.2019 18:40 29,6 C 22,8 C 29 % 39 % 1003,6 hPa 0,0 l/m 12,9 km/h O-SO 112 8,1 C 21,1 C 19,3 km/h
25.04.2019 18:35 29,0 C 22,8 C 29 % 38 % 1003,7 hPa 0,0 l/m 12,9 km/h O 90 7,7 C 21,1 C 19,3 km/h
25.04.2019 18:30 28,4 C 22,6 C 30 % 38 % 1003,8 hPa 0,0 l/m 14,5 km/h O 90 7,6 C 20,5 C 20,9 km/h
25.04.2019 18:25 27,8 C 22,4 C 30 % 38 % 1003,8 hPa 0,0 l/m 16,1 km/h O 90 7,4 C 20,0 C 22,5 km/h
25.04.2019 18:20 27,5 C 22,3 C 30 % 38 % 1004,0 hPa 0,0 l/m 16,1 km/h O 90 7,3 C 19,8 C 22,5 km/h
25.04.2019 18:15 27,4 C 22,1 C 30 % 38 % 1004,0 hPa 0,0 l/m 12,9 km/h O-SO 112 7,1 C 20,2 C 17,7 km/h
25.04.2019 18:10 27,6 C 22,1 C 30 % 39 % 1004,0 hPa 0,0 l/m 17,7 km/h O 90 7,5 C 19,3 C 25,7 km/h
25.04.2019 18:05 28,0 C 22,1 C 29 % 39 % 1003,9 hPa 0,0 l/m 19,3 km/h O 90 7,5 C 19,0 C 25,7 km/h
25.04.2019 18:00 28,3 C 22,1 C 29 % 40 % 1004,0 hPa 0,0 l/m 19,3 km/h O 90 7,9 C 19,0 C 25,7 km/h
25.04.2019 17:55 28,7 C 22,1 C 29 % 40 % 1004,1 hPa 0,0 l/m 19,3 km/h O 90 7,9 C 19,0 C 25,7 km/h
25.04.2019 17:50 29,0 C 21,9 C 29 % 42 % 1004,2 hPa 0,0 l/m 17,7 km/h O-SO 112 8,4 C 19,0 C 24,1 km/h
25.04.2019 17:45 29,2 C 21,9 C 29 % 41 % 1004,2 hPa 0,0 l/m 16,1 km/h O-SO 112 8,0 C 19,3 C 24,1 km/h
25.04.2019 17:40 29,2 C 22,0 C 29 % 41 % 1004,3 hPa 0,0 l/m 16,1 km/h O-SO 112 8,1 C 19,5 C 20,9 km/h
25.04.2019 17:35 29,3 C 21,9 C 28 % 42 % 1004,3 hPa 0,0 l/m 16,1 km/h O 90 8,4 C 19,3 C 22,5 km/h
25.04.2019 17:30 29,4 C 21,9 C 29 % 39 % 1004,5 hPa 0,0 l/m 19,3 km/h O-SO 112 7,3 C 18,8 C 27,4 km/h
25.04.2019 17:25 29,5 C 21,9 C 29 % 40 % 1004,5 hPa 0,0 l/m 19,3 km/h O-SO 112 7,7 C 18,8 C 24,1 km/h
25.04.2019 17:20 29,4 C 21,9 C 29 % 41 % 1004,6 hPa 0,0 l/m 19,3 km/h O 90 8,0 C 18,8 C 29,0 km/h
25.04.2019 17:15 29,2 C 21,9 C 29 % 41 % 1004,8 hPa 0,0 l/m 19,3 km/h O 90 8,0 C 18,8 C 29,0 km/h
25.04.2019 17:10 28,8 C 21,8 C 30 % 43 % 1004,7 hPa 0,0 l/m 16,1 km/h O 90 8,7 C 19,2 C 24,1 km/h
25.04.2019 17:05 28,7 C 21,6 C 30 % 42 % 1004,9 hPa 0,0 l/m 14,5 km/h O 90 8,1 C 19,3 C 24,1 km/h
25.04.2019 17:00 28,6 C 21,5 C 30 % 42 % 1004,9 hPa 0,0 l/m 19,3 km/h O 90 8,0 C 18,3 C 25,7 km/h
25.04.2019 16:55 28,4 C 21,3 C 30 % 45 % 1005,0 hPa 0,0 l/m 16,1 km/h O 90 8,9 C 18,6 C 24,1 km/h
25.04.2019 16:50 28,4 C 21,0 C 30 % 44 % 1005,1 hPa 0,0 l/m 16,1 km/h O 90 8,3 C 18,2 C 24,1 km/h
25.04.2019 16:45 28,6 C 20,9 C 30 % 44 % 1005,1 hPa 0,0 l/m 19,3 km/h O 90 8,2 C 17,5 C 27,4 km/h
25.04.2019 16:40 28,7 C 20,9 C 30 % 45 % 1005,1 hPa 0,0 l/m 17,7 km/h O-NO 67 8,5 C 17,8 C 29,0 km/h
25.04.2019 16:35 28,5 C 20,7 C 30 % 44 % 1005,4 hPa 0,0 l/m 16,1 km/h O 90 8,0 C 17,9 C 24,1 km/h
25.04.2019 16:30 28,3 C 20,6 C 30 % 47 % 1005,3 hPa 0,0 l/m 17,7 km/h O 90 8,9 C 17,4 C 27,4 km/h
25.04.2019 16:25 28,2 C 20,3 C 30 % 45 % 1005,4 hPa 0,0 l/m 22,5 km/h O 90 8,0 C 16,2 C 30,6 km/h
25.04.2019 16:20 28,3 C 20,2 C 30 % 46 % 1005,5 hPa 0,0 l/m 20,9 km/h O 90 8,2 C 16,3 C 27,4 km/h
25.04.2019 16:15 28,4 C 20,1 C 30 % 46 % 1005,6 hPa 0,0 l/m 19,3 km/h O 90 8,1 C 16,5 C 29,0 km/h
25.04.2019 16:10 28,4 C 19,9 C 30 % 47 % 1005,7 hPa 0,0 l/m 17,7 km/h O 90 8,3 C 16,5 C 20,9 km/h
25.04.2019 16:05 28,4 C 19,7 C 31 % 47 % 1005,7 hPa 0,0 l/m 19,3 km/h O 90 8,1 C 16,0 C 25,7 km/h
25.04.2019 16:00 28,4 C 19,6 C 31 % 53 % 1005,9 hPa 0,0 l/m 17,7 km/h O-SO 112 9,8 C 16,1 C 22,5 km/h
25.04.2019 15:55 28,4 C 19,6 C 31 % 50 % 1006,2 hPa 0,0 l/m 16,1 km/h O 90 8,9 C 16,5 C 24,1 km/h
25.04.2019 15:50 28,5 C 19,4 C 30 % 51 % 1006,3 hPa 0,0 l/m 17,7 km/h O 90 9,0 C 15,9 C 24,1 km/h
25.04.2019 15:45 28,6 C 19,3 C 31 % 50 % 1006,2 hPa 0,0 l/m 14,5 km/h O-SO 112 8,6 C 16,5 C 20,9 km/h
25.04.2019 15:40 28,8 C 19,3 C 30 % 48 % 1006,3 hPa 0,0 l/m 19,3 km/h O 90 8,0 C 15,4 C 27,4 km/h
25.04.2019 15:35 28,8 C 19,3 C 31 % 48 % 1006,4 hPa 0,0 l/m 17,7 km/h O-SO 112 8,0 C 15,8 C 25,7 km/h
25.04.2019 15:30 28,8 C 19,2 C 31 % 48 % 1006,5 hPa 0,0 l/m 17,7 km/h O-SO 112 7,9 C 15,6 C 29,0 km/h
25.04.2019 15:25 28,5 C 19,3 C 31 % 51 % 1006,6 hPa 0,0 l/m 14,5 km/h SO 135 8,9 C 16,5 C 25,7 km/h
25.04.2019 15:20 28,1 C 19,2 C 32 % 52 % 1006,6 hPa 0,0 l/m 14,5 km/h SO 135 9,1 C 16,4 C 22,5 km/h
25.04.2019 15:15 27,8 C 18,8 C 32 % 50 % 1006,6 hPa 0,0 l/m 9,7 km/h O 90 8,2 C 17,4 C 14,5 km/h
25.04.2019 15:10 27,7 C 18,6 C 31 % 50 % 1006,7 hPa 0,0 l/m 9,7 km/h O-NO 67 8,0 C 17,2 C 17,7 km/h
25.04.2019 15:05 27,8 C 18,4 C 31 % 48 % 1006,7 hPa 0,0 l/m 16,1 km/h O-NO 67 7,2 C 15,0 C 25,7 km/h
25.04.2019 15:00 27,8 C 18,6 C 32 % 50 % 1006,7 hPa 0,0 l/m 16,1 km/h O 90 8,0 C 15,3 C 22,5 km/h
25.04.2019 14:55 27,8 C 18,5 C 32 % 51 % 1006,9 hPa 0,0 l/m 16,1 km/h O 90 8,2 C 15,1 C 20,9 km/h
25.04.2019 14:50 27,9 C 18,3 C 32 % 50 % 1007,0 hPa 0,0 l/m 17,7 km/h O 90 7,7 C 14,5 C 24,1 km/h
25.04.2019 14:45 28,0 C 18,1 C 31 % 51 % 1007,0 hPa 0,0 l/m 17,7 km/h O-NO 67 7,8 C 14,3 C 27,4 km/h
25.04.2019 14:40 28,1 C 18,1 C 31 % 52 % 1007,1 hPa 0,0 l/m 16,1 km/h O 90 8,1 C 14,7 C 22,5 km/h
25.04.2019 14:35 27,9 C 17,8 C 32 % 51 % 1007,3 hPa 0,0 l/m 16,1 km/h O-SO 112 7,5 C 14,3 C 24,1 km/h
25.04.2019 14:30 27,9 C 17,8 C 32 % 51 % 1007,1 hPa 0,0 l/m 14,5 km/h O-SO 112 7,5 C 14,7 C 24,1 km/h
25.04.2019 14:25 27,8 C 18,1 C 32 % 51 % 1007,1 hPa 0,0 l/m 16,1 km/h O 90 7,8 C 14,7 C 24,1 km/h
25.04.2019 14:20 27,8 C 17,8 C 32 % 51 % 1007,3 hPa 0,0 l/m 17,7 km/h O 90 7,5 C 13,9 C 25,7 km/h
25.04.2019 14:15 27,6 C 17,8 C 32 % 53 % 1007,3 hPa 0,0 l/m 17,7 km/h O-SO 112 8,1 C 13,9 C 25,7 km/h
25.04.2019 14:10 27,4 C 17,7 C 32 % 51 % 1007,5 hPa 0,0 l/m 17,7 km/h O-SO 112 7,4 C 13,8 C 25,7 km/h
25.04.2019 14:05 27,3 C 17,6 C 32 % 51 % 1007,5 hPa 0,0 l/m 17,7 km/h O 90 7,3 C 13,6 C 27,4 km/h
25.04.2019 14:00 27,3 C 17,4 C 33 % 50 % 1007,5 hPa 0,0 l/m 20,9 km/h O-SO 112 6,9 C 12,7 C 30,6 km/h
25.04.2019 13:55 27,2 C 17,5 C 32 % 50 % 1007,5 hPa 0,0 l/m 19,3 km/h O-SO 112 7,0 C 13,1 C 25,7 km/h
25.04.2019 13:50 27,0 C 17,5 C 33 % 53 % 1007,4 hPa 0,0 l/m 17,7 km/h O-SO 112 7,8 C 13,5 C 24,1 km/h
25.04.2019 13:45 26,8 C 17,6 C 33 % 51 % 1007,3 hPa 0,0 l/m 17,7 km/h O-SO 112 7,3 C 13,6 C 27,4 km/h
25.04.2019 13:40 26,8 C 17,2 C 33 % 51 % 1007,5 hPa 0,0 l/m 19,3 km/h O 90 7,0 C 12,7 C 27,4 km/h
25.04.2019 13:35 26,9 C 17,1 C 33 % 50 % 1007,5 hPa 0,0 l/m 20,9 km/h O 90 6,6 C 12,3 C 25,7 km/h
25.04.2019 13:30 26,9 C 17,0 C 33 % 52 % 1007,6 hPa 0,0 l/m 20,9 km/h O-SO 112 7,1 C 12,1 C 29,0 km/h
25.04.2019 13:25 27,2 C 17,0 C 32 % 53 % 1007,7 hPa 0,0 l/m 17,7 km/h O 90 7,4 C 12,9 C 29,0 km/h
25.04.2019 13:20 27,3 C 17,0 C 33 % 52 % 1007,9 hPa 0,0 l/m 16,1 km/h O-SO 112 7,1 C 13,3 C 22,5 km/h
25.04.2019 13:15 27,3 C 16,9 C 33 % 53 % 1008,0 hPa 0,0 l/m 14,5 km/h O-SO 112 7,3 C 13,6 C 20,9 km/h
25.04.2019 13:10 27,4 C 16,8 C 33 % 52 % 1008,0 hPa 0,0 l/m 16,1 km/h O 90 6,9 C 13,1 C 24,1 km/h
25.04.2019 13:05 27,3 C 16,7 C 33 % 54 % 1008,0 hPa 0,0 l/m 14,5 km/h O-SO 112 7,3 C 13,4 C 19,3 km/h
25.04.2019 13:00 27,3 C 16,6 C 33 % 54 % 1008,2 hPa 0,0 l/m 9,7 km/h SO 135 7,3 C 15,0 C 17,7 km/h
25.04.2019 12:55 27,2 C 16,5 C 33 % 55 % 1008,3 hPa 0,0 l/m 9,7 km/h SO 135 7,4 C 14,9 C 16,1 km/h
25.04.2019 12:50 27,1 C 16,4 C 33 % 53 % 1008,4 hPa 0,0 l/m 11,3 km/h S-SO 157 6,8 C 14,1 C 16,1 km/h
25.04.2019 12:45 27,0 C 16,4 C 34 % 52 % 1008,6 hPa 0,0 l/m 14,5 km/h SO 135 6,5 C 13,0 C 20,9 km/h
25.04.2019 12:40 26,9 C 16,4 C 34 % 53 % 1008,5 hPa 0,0 l/m 16,1 km/h S-SO 157 6,8 C 12,6 C 22,5 km/h
25.04.2019 12:35 26,7 C 16,4 C 35 % 51 % 1008,6 hPa 0,0 l/m 12,9 km/h O-SO 112 6,2 C 13,6 C 20,9 km/h
25.04.2019 12:30 26,5 C 16,2 C 35 % 56 % 1008,6 hPa 0,0 l/m 17,7 km/h O-SO 112 7,4 C 11,9 C 27,4 km/h
25.04.2019 12:25 26,3 C 16,0 C 35 % 52 % 1008,7 hPa 0,0 l/m 16,1 km/h SO 135 6,2 C 12,1 C 24,1 km/h
25.04.2019 12:20 26,1 C 15,8 C 35 % 54 % 1008,6 hPa 0,0 l/m 16,1 km/h O-SO 112 6,5 C 11,8 C 20,9 km/h
25.04.2019 12:15 25,9 C 15,7 C 36 % 55 % 1008,6 hPa 0,0 l/m 17,7 km/h SO 135 6,7 C 11,2 C 22,5 km/h
25.04.2019 12:10 26,0 C 15,6 C 36 % 56 % 1008,7 hPa 0,0 l/m 14,5 km/h SO 135 6,9 C 12,1 C 20,9 km/h
25.04.2019 12:05 26,1 C 15,7 C 36 % 55 % 1008,7 hPa 0,0 l/m 20,9 km/h SO 135 6,7 C 10,4 C 27,4 km/h
25.04.2019 12:00 26,0 C 15,8 C 37 % 55 % 1008,7 hPa 0,0 l/m 16,1 km/h O-SO 112 6,8 C 11,8 C 24,1 km/h
25.04.2019 11:55 25,8 C 15,6 C 38 % 59 % 1008,8 hPa 0,0 l/m 14,5 km/h O-SO 112 7,6 C 12,1 C 20,9 km/h
25.04.2019 11:50 25,7 C 15,1 C 39 % 59 % 1008,8 hPa 0,0 l/m 9,7 km/h SO 135 7,1 C 13,4 C 17,7 km/h
25.04.2019 11:45 25,6 C 14,4 C 39 % 67 % 1009,0 hPa 0,0 l/m 3,2 km/h NW 315 8,4 C 14,4 C 14,5 km/h
25.04.2019 11:40 25,6 C 14,1 C 39 % 71 % 1008,9 hPa 0,0 l/m 4,8 km/h W-NW 292 8,9 C 14,1 C 9,7 km/h
25.04.2019 11:35 25,7 C 14,0 C 39 % 72 % 1008,9 hPa 0,0 l/m 6,4 km/h W-NW 292 9,0 C 14,0 C 11,3 km/h
25.04.2019 11:30 25,8 C 13,8 C 39 % 72 % 1009,0 hPa 0,0 l/m 9,7 km/h W-NW 292 8,8 C 11,9 C 14,5 km/h
25.04.2019 11:25 25,9 C 13,8 C 39 % 74 % 1008,9 hPa 0,0 l/m 11,3 km/h W-NW 292 9,2 C 11,2 C 17,7 km/h
25.04.2019 11:20 25,9 C 13,8 C 39 % 75 % 1008,9 hPa 0,0 l/m 14,5 km/h W-NW 292 9,4 C 9,9 C 17,7 km/h
25.04.2019 11:15 26,1 C 13,7 C 39 % 75 % 1008,9 hPa 0,0 l/m 6,4 km/h NW 315 9,3 C 13,7 C 12,9 km/h
25.04.2019 11:10 26,0 C 13,6 C 39 % 76 % 1008,9 hPa 0,0 l/m 9,7 km/h NW 315 9,4 C 11,7 C 14,5 km/h
25.04.2019 11:05 25,8 C 13,2 C 39 % 79 % 1008,9 hPa 0,0 l/m 11,3 km/h NW 315 9,6 C 10,5 C 14,5 km/h
25.04.2019 11:00 25,7 C 12,8 C 39 % 78 % 1009,1 hPa 0,0 l/m 9,7 km/h W-NW 292 9,1 C 10,8 C 12,9 km/h
25.04.2019 10:55 25,6 C 12,6 C 39 % 79 % 1009,2 hPa 0,0 l/m 8,0 km/h W-NW 292 9,1 C 11,6 C 12,9 km/h
25.04.2019 10:50 25,3 C 12,6 C 40 % 80 % 1009,1 hPa 0,0 l/m 11,3 km/h W-NW 292 9,2 C 9,8 C 16,1 km/h
25.04.2019 10:45 25,1 C 12,3 C 40 % 81 % 1009,1 hPa 0,0 l/m 11,3 km/h W-NW 292 9,1 C 9,5 C 14,5 km/h
25.04.2019 10:40 25,0 C 12,3 C 40 % 81 % 1009,1 hPa 0,0 l/m 9,7 km/h W-NW 292 9,1 C 10,3 C 16,1 km/h
25.04.2019 10:35 25,0 C 12,6 C 40 % 81 % 1009,1 hPa 0,0 l/m 9,7 km/h NW 315 9,4 C 10,6 C 12,9 km/h
25.04.2019 10:30 24,8 C 12,7 C 41 % 82 % 1009,1 hPa 0,0 l/m 1,6 km/h W-NW 292 9,7 C 12,7 C 8,0 km/h
25.04.2019 10:25 24,6 C 12,3 C 41 % 85 % 1009,2 hPa 0,0 l/m 1,6 km/h NW 315 9,9 C 12,3 C 3,2 km/h
25.04.2019 10:20 24,3 C 11,9 C 41 % 87 % 1009,1 hPa 0,0 l/m 1,6 km/h NW 315 9,8 C 11,9 C 4,8 km/h
25.04.2019 10:15 24,1 C 11,5 C 42 % 88 % 1009,2 hPa 0,0 l/m 3,2 km/h W-NW 292 9,6 C 11,5 C 6,4 km/h
25.04.2019 10:10 23,8 C 11,2 C 42 % 91 % 1009,2 hPa 0,0 l/m 4,8 km/h N-NW 337 9,8 C 11,2 C 11,3 km/h
25.04.2019 10:05 23,5 C 10,7 C 42 % 91 % 1009,2 hPa 0,0 l/m 3,2 km/h N 360 9,3 C 10,7 C 6,4 km/h
25.04.2019 10:00 23,2 C 10,3 C 43 % 92 % 1009,2 hPa 0,0 l/m 1,6 km/h N 360 9,1 C 10,3 C 3,2 km/h
25.04.2019 09:55 23,0 C 9,9 C 43 % 92 % 1009,1 hPa 0,0 l/m 3,2 km/h N 360 8,7 C 9,9 C 8,0 km/h
25.04.2019 09:50 22,9 C 9,7 C 43 % 93 % 1009,1 hPa 0,0 l/m 3,2 km/h N 360 8,6 C 9,7 C 6,4 km/h
25.04.2019 09:45 22,8 C 9,4 C 43 % 94 % 1009,0 hPa 0,0 l/m 4,8 km/h N 360 8,5 C 9,4 C 8,0 km/h
25.04.2019 09:40 22,7 C 9,2 C 43 % 94 % 1009,1 hPa 0,0 l/m 3,2 km/h N 360 8,3 C 9,2 C 6,4 km/h
25.04.2019 09:35 22,6 C 8,9 C 43 % 95 % 1009,0 hPa 0,0 l/m 1,6 km/h N 360 8,1 C 8,9 C 4,8 km/h
25.04.2019 09:30 22,4 C 8,8 C 44 % 95 % 1009,0 hPa 0,0 l/m 3,2 km/h N 360 8,0 C 8,8 C 6,4 km/h
25.04.2019 09:25 22,2 C 8,6 C 44 % 95 % 1009,0 hPa 0,0 l/m 4,8 km/h NO 45 7,8 C 8,6 C 8,0 km/h
25.04.2019 09:20 21,9 C 8,3 C 44 % 95 % 1009,0 hPa 0,0 l/m 4,8 km/h NO 45 7,5 C 8,3 C 8,0 km/h
25.04.2019 09:15 21,6 C 8,1 C 45 % 95 % 1009,0 hPa 0,0 l/m 3,2 km/h N 360 7,3 C 8,1 C 8,0 km/h
25.04.2019 09:10 21,4 C 7,8 C 45 % 95 % 1008,9 hPa 0,0 l/m 4,8 km/h N-NO 22 7,0 C 7,8 C 8,0 km/h
25.04.2019 09:05 21,1 C 7,6 C 45 % 95 % 1008,9 hPa 0,0 l/m 6,4 km/h N-NO 22 6,9 C 7,6 C 11,3 km/h
25.04.2019 09:00 20,8 C 7,6 C 46 % 95 % 1008,8 hPa 0,0 l/m 4,8 km/h N-NO 22 6,9 C 7,6 C 8,0 km/h
25.04.2019 08:55 20,5 C 7,4 C 46 % 96 % 1008,7 hPa 0,0 l/m 4,8 km/h N-NO 22 6,8 C 7,4 C 8,0 km/h
25.04.2019 08:50 20,3 C 7,2 C 46 % 96 % 1008,7 hPa 0,0 l/m 6,4 km/h NO 45 6,6 C 7,2 C 8,0 km/h
25.04.2019 08:45 20,1 C 7,0 C 46 % 95 % 1008,8 hPa 0,0 l/m 6,4 km/h NO 45 6,3 C 7,0 C 11,3 km/h
25.04.2019 08:40 19,7 C 6,9 C 47 % 96 % 1008,7 hPa 0,0 l/m 6,4 km/h NO 45 6,3 C 6,9 C 9,7 km/h
25.04.2019 08:35 19,5 C 6,4 C 47 % 95 % 1008,4 hPa 0,0 l/m 6,4 km/h NO 45 5,7 C 6,4 C 9,7 km/h
25.04.2019 08:30 19,4 C 6,2 C 47 % 95 % 1008,2 hPa 0,0 l/m 6,4 km/h NO 45 5,5 C 6,2 C 11,3 km/h
25.04.2019 08:25 19,5 C 6,1 C 46 % 95 % 1008,2 hPa 0,0 l/m 8,0 km/h NO 45 5,4 C 4,8 C 12,9 km/h
25.04.2019 08:20 19,9 C 5,9 C 46 % 95 % 1008,2 hPa 0,0 l/m 8,0 km/h O-NO 67 5,2 C 4,5 C 12,9 km/h
25.04.2019 08:15 20,4 C 5,9 C 45 % 95 % 1008,1 hPa 0,0 l/m 8,0 km/h NO 45 5,2 C 4,5 C 12,9 km/h
25.04.2019 08:10 20,7 C 5,9 C 45 % 95 % 1008,3 hPa 0,0 l/m 6,4 km/h NO 45 5,2 C 5,9 C 8,0 km/h
25.04.2019 08:05 20,3 C 5,9 C 46 % 95 % 1008,1 hPa 0,0 l/m 6,4 km/h O-NO 67 5,2 C 5,9 C 8,0 km/h
25.04.2019 08:00 19,8 C 5,7 C 47 % 95 % 1008,3 hPa 0,0 l/m 4,8 km/h NO 45 5,0 C 5,7 C 6,4 km/h
25.04.2019 07:55 19,9 C 5,4 C 46 % 95 % 1008,3 hPa 0,0 l/m 1,6 km/h NO 45 4,7 C 5,4 C 3,2 km/h
25.04.2019 07:50 20,3 C 5,6 C 46 % 95 % 1008,2 hPa 0,0 l/m 1,6 km/h NO 45 4,9 C 5,6 C 3,2 km/h
25.04.2019 07:45 20,0 C 5,7 C 47 % 95 % 1008,3 hPa 0,0 l/m 4,8 km/h NO 45 5,0 C 5,7 C 8,0 km/h
25.04.2019 07:40 19,7 C 5,8 C 48 % 95 % 1008,2 hPa 0,0 l/m 1,6 km/h N-NW 337 5,1 C 5,8 C 6,4 km/h
25.04.2019 07:35 19,2 C 5,8 C 49 % 95 % 1008,2 hPa 0,0 l/m 0,0 km/h N-NW 337 5,1 C 5,8 C 3,2 km/h
25.04.2019 07:30 18,3 C 5,6 C 51 % 95 % 1008,2 hPa 0,0 l/m 3,2 km/h N-NW 337 4,9 C 5,6 C 8,0 km/h
25.04.2019 07:25 17,4 C 5,1 C 52 % 95 % 1008,2 hPa 0,0 l/m 4,8 km/h W 270 4,4 C 5,1 C 9,7 km/h
25.04.2019 07:20 17,1 C 5,2 C 53 % 95 % 1008,3 hPa 0,0 l/m 0,0 km/h N 0 4,5 C 5,2 C 0,0 km/h
25.04.2019 07:15 16,9 C 5,2 C 53 % 95 % 1008,2 hPa 0,0 l/m 0,0 km/h N 0 4,5 C 5,2 C 0,0 km/h
25.04.2019 07:10 16,7 C 5,1 C 54 % 95 % 1008,2 hPa 0,0 l/m 0,0 km/h N 0 4,4 C 5,1 C 0,0 km/h
25.04.2019 07:05 16,4 C 5,0 C 54 % 95 % 1008,3 hPa 0,0 l/m 0,0 km/h N 0 4,3 C 5,0 C 0,0 km/h
25.04.2019 07:00 16,2 C 5,1 C 55 % 95 % 1008,1 hPa 0,0 l/m 0,0 km/h N 0 4,4 C 5,1 C 0,0 km/h
25.04.2019 06:55 16,0 C 5,1 C 55 % 94 % 1008,1 hPa 0,0 l/m 0,0 km/h N 0 4,2 C 5,1 C 0,0 km/h
25.04.2019 06:50 15,8 C 5,1 C 56 % 95 % 1008,0 hPa 0,0 l/m 0,0 km/h N 0 4,4 C 5,1 C 0,0 km/h
25.04.2019 06:45 15,7 C 5,3 C 56 % 95 % 1007,9 hPa 0,0 l/m 0,0 km/h N 0 4,6 C 5,3 C 0,0 km/h
25.04.2019 06:40 15,6 C 5,3 C 56 % 95 % 1007,8 hPa 0,0 l/m 0,0 km/h N 0 4,6 C 5,3 C 0,0 km/h
25.04.2019 06:35 15,6 C 5,3 C 56 % 95 % 1007,8 hPa 0,0 l/m 0,0 km/h N 0 4,6 C 5,3 C 0,0 km/h
25.04.2019 06:30 15,6 C 5,3 C 56 % 95 % 1007,7 hPa 0,0 l/m 0,0 km/h N 0 4,6 C 5,3 C 0,0 km/h
25.04.2019 06:25 15,6 C 5,3 C 56 % 95 % 1007,8 hPa 0,0 l/m 0,0 km/h N 0 4,6 C 5,3 C 0,0 km/h
25.04.2019 06:20 15,5 C 5,3 C 56 % 95 % 1007,7 hPa 0,0 l/m 0,0 km/h N 0 4,6 C 5,3 C 0,0 km/h
25.04.2019 06:15 15,5 C 5,3 C 56 % 95 % 1007,7 hPa 0,0 l/m 0,0 km/h N 0 4,6 C 5,3 C 0,0 km/h
25.04.2019 06:10 15,6 C 5,3 C 56 % 95 % 1007,7 hPa 0,0 l/m 0,0 km/h N 0 4,6 C 5,3 C 0,0 km/h
25.04.2019 06:05 15,6 C 5,3 C 56 % 95 % 1007,5 hPa 0,0 l/m 0,0 km/h N 0 4,6 C 5,3 C 0,0 km/h
25.04.2019 06:00 15,6 C 5,3 C 56 % 95 % 1007,5 hPa 0,0 l/m 0,0 km/h N 0 4,6 C 5,3 C 0,0 km/h
25.04.2019 05:55 15,6 C 5,3 C 56 % 95 % 1007,5 hPa 0,0 l/m 0,0 km/h N 0 4,6 C 5,3 C 0,0 km/h
25.04.2019 05:50 15,7 C 5,3 C 57 % 95 % 1007,6 hPa 0,0 l/m 1,6 km/h NW 315 4,6 C 5,3 C 3,2 km/h
25.04.2019 05:45 15,7 C 5,2 C 56 % 94 % 1007,5 hPa 0,0 l/m 1,6 km/h NW 315 4,3 C 5,2 C 4,8 km/h
25.04.2019 05:40 15,7 C 5,3 C 56 % 94 % 1007,4 hPa 0,0 l/m 3,2 km/h NW 315 4,4 C 5,3 C 4,8 km/h
25.04.2019 05:35 15,7 C 5,5 C 56 % 95 % 1007,2 hPa 0,0 l/m 1,6 km/h N 360 4,8 C 5,5 C 3,2 km/h
25.04.2019 05:30 15,7 C 5,4 C 56 % 94 % 1007,4 hPa 0,0 l/m 1,6 km/h N 360 4,5 C 5,4 C 3,2 km/h
25.04.2019 05:25 15,7 C 5,4 C 57 % 94 % 1007,2 hPa 0,0 l/m 1,6 km/h N 360 4,5 C 5,4 C 3,2 km/h
25.04.2019 05:20 15,7 C 5,4 C 57 % 94 % 1007,3 hPa 0,0 l/m 1,6 km/h N 360 4,5 C 5,4 C 3,2 km/h
25.04.2019 05:15 15,8 C 5,4 C 57 % 95 % 1007,3 hPa 0,0 l/m 3,2 km/h N 360 4,7 C 5,4 C 4,8 km/h
25.04.2019 05:10 15,8 C 5,4 C 57 % 94 % 1007,3 hPa 0,0 l/m 1,6 km/h N 360 4,5 C 5,4 C 4,8 km/h
25.04.2019 05:05 15,8 C 5,5 C 56 % 94 % 1007,3 hPa 0,0 l/m 3,2 km/h N 360 4,6 C 5,5 C 4,8 km/h
25.04.2019 05:00 15,8 C 5,6 C 56 % 94 % 1007,1 hPa 0,0 l/m 3,2 km/h NO 45 4,7 C 5,6 C 6,4 km/h
25.04.2019 04:55 15,8 C 5,6 C 56 % 94 % 1007,1 hPa 0,0 l/m 4,8 km/h NO 45 4,7 C 5,6 C 6,4 km/h
25.04.2019 04:50 15,8 C 5,6 C 56 % 94 % 1007,1 hPa 0,0 l/m 3,2 km/h NO 45 4,7 C 5,6 C 4,8 km/h
25.04.2019 04:45 15,8 C 5,7 C 56 % 94 % 1007,0 hPa 0,0 l/m 3,2 km/h NO 45 4,8 C 5,7 C 4,8 km/h
25.04.2019 04:40 15,8 C 5,7 C 56 % 94 % 1007,0 hPa 0,0 l/m 3,2 km/h NO 45 4,8 C 5,7 C 6,4 km/h
25.04.2019 04:35 15,8 C 5,8 C 56 % 94 % 1006,9 hPa 0,0 l/m 3,2 km/h NO 45 4,9 C 5,8 C 4,8 km/h
25.04.2019 04:30 15,8 C 5,8 C 57 % 94 % 1007,0 hPa 0,0 l/m 4,8 km/h NO 45 4,9 C 5,8 C 6,4 km/h
25.04.2019 04:25 15,8 C 5,9 C 56 % 94 % 1006,9 hPa 0,0 l/m 4,8 km/h NO 45 5,0 C 5,9 C 6,4 km/h
25.04.2019 04:20 15,9 C 5,8 C 57 % 94 % 1006,9 hPa 0,0 l/m 4,8 km/h NO 45 4,9 C 5,8 C 6,4 km/h
25.04.2019 04:15 15,9 C 5,9 C 56 % 94 % 1006,9 hPa 0,0 l/m 1,6 km/h NO 45 5,0 C 5,9 C 4,8 km/h
25.04.2019 04:10 15,8 C 6,1 C 57 % 94 % 1007,0 hPa 0,0 l/m 3,2 km/h NO 45 5,2 C 6,1 C 4,8 km/h
25.04.2019 04:05 15,8 C 6,1 C 57 % 94 % 1007,0 hPa 0,0 l/m 1,6 km/h NO 45 5,2 C 6,1 C 4,8 km/h
25.04.2019 04:00 15,8 C 6,1 C 57 % 93 % 1007,0 hPa 0,0 l/m 1,6 km/h NO 45 5,1 C 6,1 C 4,8 km/h
25.04.2019 03:55 15,8 C 6,2 C 56 % 93 % 1007,1 hPa 0,0 l/m 0,0 km/h NO 45 5,2 C 6,2 C 3,2 km/h
25.04.2019 03:50 15,8 C 6,3 C 56 % 93 % 1006,9 hPa 0,0 l/m 0,0 km/h N 0 5,3 C 6,3 C 0,0 km/h
25.04.2019 03:45 15,9 C 6,4 C 56 % 94 % 1007,0 hPa 0,0 l/m 0,0 km/h N 0 5,5 C 6,4 C 0,0 km/h
25.04.2019 03:40 15,9 C 6,4 C 56 % 94 % 1007,0 hPa 0,0 l/m 0,0 km/h N 0 5,5 C 6,4 C 0,0 km/h
25.04.2019 03:35 15,9 C 6,5 C 56 % 93 % 1006,9 hPa 0,0 l/m 0,0 km/h N 0 5,5 C 6,5 C 0,0 km/h
25.04.2019 03:30 15,9 C 6,5 C 56 % 93 % 1006,9 hPa 0,0 l/m 0,0 km/h N 0 5,5 C 6,5 C 0,0 km/h
25.04.2019 03:25 15,9 C 6,4 C 56 % 94 % 1006,8 hPa 0,0 l/m 0,0 km/h N 0 5,5 C 6,4 C 0,0 km/h
25.04.2019 03:20 16,0 C 6,4 C 56 % 94 % 1006,7 hPa 0,0 l/m 0,0 km/h N 0 5,5 C 6,4 C 0,0 km/h
25.04.2019 03:15 16,0 C 6,3 C 56 % 93 % 1006,7 hPa 0,0 l/m 0,0 km/h N 0 5,3 C 6,3 C 0,0 km/h
25.04.2019 03:10 16,0 C 6,4 C 56 % 93 % 1006,5 hPa 0,0 l/m 0,0 km/h N 0 5,4 C 6,4 C 0,0 km/h
25.04.2019 03:05 16,0 C 6,4 C 56 % 93 % 1006,7 hPa 0,0 l/m 0,0 km/h NO 45 5,4 C 6,4 C 1,6 km/h
25.04.2019 03:00 16,1 C 6,4 C 56 % 93 % 1006,6 hPa 0,0 l/m 1,6 km/h NO 45 5,4 C 6,4 C 4,8 km/h
25.04.2019 02:55 16,1 C 6,5 C 56 % 93 % 1006,5 hPa 0,0 l/m 1,6 km/h NO 45 5,5 C 6,5 C 3,2 km/h
25.04.2019 02:50 16,1 C 6,7 C 56 % 93 % 1006,5 hPa 0,0 l/m 3,2 km/h NO 45 5,6 C 6,7 C 4,8 km/h
25.04.2019 02:45 16,1 C 6,6 C 56 % 93 % 1006,3 hPa 0,0 l/m 3,2 km/h N-NO 22 5,6 C 6,6 C 4,8 km/h
25.04.2019 02:40 16,2 C 6,7 C 56 % 93 % 1006,2 hPa 0,0 l/m 3,2 km/h NO 45 5,6 C 6,7 C 6,4 km/h
25.04.2019 02:35 16,2 C 6,7 C 56 % 93 % 1006,3 hPa 0,0 l/m 3,2 km/h O-NO 67 5,6 C 6,7 C 4,8 km/h
25.04.2019 02:30 16,2 C 6,7 C 56 % 92 % 1006,2 hPa 0,0 l/m 1,6 km/h O-NO 67 5,5 C 6,7 C 3,2 km/h
25.04.2019 02:25 16,2 C 6,7 C 56 % 92 % 1006,3 hPa 0,0 l/m 3,2 km/h O-NO 67 5,5 C 6,7 C 4,8 km/h
25.04.2019 02:20 16,2 C 6,8 C 56 % 92 % 1006,3 hPa 0,0 l/m 4,8 km/h NO 45 5,6 C 6,8 C 6,4 km/h
25.04.2019 02:15 16,3 C 6,8 C 55 % 92 % 1006,4 hPa 0,0 l/m 4,8 km/h NO 45 5,6 C 6,8 C 8,0 km/h
25.04.2019 02:10 16,4 C 6,7 C 56 % 92 % 1006,4 hPa 0,0 l/m 3,2 km/h O-NO 67 5,5 C 6,7 C 6,4 km/h
25.04.2019 02:05 16,4 C 6,7 C 55 % 92 % 1006,3 hPa 0,0 l/m 1,6 km/h SO 135 5,5 C 6,7 C 4,8 km/h
25.04.2019 02:00 16,5 C 6,7 C 55 % 91 % 1006,5 hPa 0,0 l/m 1,6 km/h SO 135 5,3 C 6,7 C 8,0 km/h
25.04.2019 01:55 16,5 C 6,8 C 55 % 92 % 1006,4 hPa 0,0 l/m 8,0 km/h SO 135 5,6 C 5,5 C 12,9 km/h
25.04.2019 01:50 16,6 C 6,9 C 55 % 92 % 1006,3 hPa 0,0 l/m 9,7 km/h SO 135 5,7 C 4,4 C 12,9 km/h
25.04.2019 01:45 16,6 C 7,0 C 55 % 92 % 1006,3 hPa 0,0 l/m 4,8 km/h SO 135 5,8 C 7,0 C 8,0 km/h
25.04.2019 01:40 16,6 C 7,1 C 55 % 92 % 1006,1 hPa 0,0 l/m 3,2 km/h O-SO 112 5,9 C 7,1 C 6,4 km/h
25.04.2019 01:35 16,7 C 7,2 C 55 % 92 % 1006,0 hPa 0,0 l/m 3,2 km/h O-SO 112 6,0 C 7,2 C 4,8 km/h
25.04.2019 01:30 16,7 C 7,2 C 55 % 92 % 1006,0 hPa 0,0 l/m 4,8 km/h O-SO 112 6,0 C 7,2 C 9,7 km/h
25.04.2019 01:25 16,8 C 7,1 C 55 % 92 % 1006,0 hPa 0,0 l/m 6,4 km/h SO 135 5,9 C 7,1 C 6,4 km/h
25.04.2019 01:20 16,8 C 6,8 C 55 % 91 % 1006,1 hPa 0,0 l/m 4,8 km/h SO 135 5,4 C 6,8 C 8,0 km/h
25.04.2019 01:15 16,8 C 7,1 C 55 % 91 % 1006,2 hPa 0,0 l/m 4,8 km/h SO 135 5,7 C 7,1 C 8,0 km/h
25.04.2019 01:10 16,9 C 7,3 C 55 % 91 % 1005,9 hPa 0,0 l/m 3,2 km/h SO 135 5,9 C 7,3 C 4,8 km/h
25.04.2019 01:05 16,9 C 7,5 C 55 % 90 % 1006,0 hPa 0,0 l/m 4,8 km/h SO 135 6,0 C 7,5 C 6,4 km/h
25.04.2019 01:00 17,0 C 7,7 C 55 % 90 % 1006,0 hPa 0,0 l/m 4,8 km/h S 180 6,2 C 7,7 C 6,4 km/h
25.04.2019 00:55 17,0 C 7,7 C 55 % 90 % 1005,7 hPa 0,0 l/m 1,6 km/h S 180 6,2 C 7,7 C 4,8 km/h
25.04.2019 00:50 17,0 C 7,8 C 55 % 90 % 1005,8 hPa 0,0 l/m 3,2 km/h S 180 6,3 C 7,8 C 6,4 km/h
25.04.2019 00:45 17,1 C 7,8 C 55 % 90 % 1005,9 hPa 0,0 l/m 4,8 km/h S 180 6,3 C 7,8 C 6,4 km/h
25.04.2019 00:40 17,1 C 7,8 C 55 % 91 % 1005,9 hPa 0,0 l/m 4,8 km/h S 180 6,4 C 7,8 C 8,0 km/h
25.04.2019 00:35 17,1 C 7,8 C 55 % 91 % 1006,0 hPa 0,0 l/m 4,8 km/h S-SW 202 6,4 C 7,8 C 8,0 km/h
25.04.2019 00:30 17,1 C 7,7 C 55 % 91 % 1005,8 hPa 0,0 l/m 1,6 km/h S-SW 202 6,3 C 7,7 C 3,2 km/h
25.04.2019 00:25 17,2 C 7,8 C 55 % 91 % 1005,8 hPa 0,0 l/m 1,6 km/h S-SW 202 6,4 C 7,8 C 3,2 km/h
25.04.2019 00:20 17,2 C 7,8 C 55 % 91 % 1005,8 hPa 0,0 l/m 1,6 km/h S-SW 202 6,4 C 7,8 C 3,2 km/h
25.04.2019 00:15 17,3 C 7,8 C 55 % 90 % 1005,8 hPa 0,0 l/m 3,2 km/h S-SW 202 6,3 C 7,8 C 4,8 km/h
25.04.2019 00:10 17,3 C 7,9 C 55 % 90 % 1005,8 hPa 0,0 l/m 4,8 km/h S-SW 202 6,4 C 7,9 C 4,8 km/h
25.04.2019 00:05 17,3 C 7,9 C 55 % 90 % 1005,9 hPa 0,0 l/m 4,8 km/h SW 225 6,4 C 7,9 C 4,8 km/h
25.04.2019 00:00 17,3 C 8,1 C 55 % 89 % 1005,9 hPa 0,0 l/m 1,6 km/h SW 225 6,4 C 8,1 C 4,8 km/h
24.04.2019 23:55 17,4 C 8,1 C 55 % 89 % 1006,1 hPa 0,0 l/m 0,0 km/h N 0 6,4 C 8,1 C 0,0 km/h
24.04.2019 23:50 17,4 C 8,1 C 55 % 89 % 1006,1 hPa 0,0 l/m 0,0 km/h N 0 6,4 C 8,1 C 0,0 km/h
24.04.2019 23:45 17,4 C 8,2 C 54 % 89 % 1006,2 hPa 0,0 l/m 0,0 km/h SW 225 6,5 C 8,2 C 3,2 km/h
24.04.2019 23:40 17,4 C 8,2 C 54 % 89 % 1006,4 hPa 0,0 l/m 1,6 km/h SW 225 6,5 C 8,2 C 4,8 km/h
24.04.2019 23:35 17,5 C 8,2 C 54 % 89 % 1006,3 hPa 0,0 l/m 3,2 km/h SW 225 6,5 C 8,2 C 6,4 km/h
24.04.2019 23:30 17,5 C 8,2 C 54 % 89 % 1006,6 hPa 0,0 l/m 4,8 km/h SW 225 6,5 C 8,2 C 8,0 km/h
24.04.2019 23:25 17,6 C 8,3 C 54 % 89 % 1006,7 hPa 0,0 l/m 6,4 km/h SW 225 6,6 C 8,3 C 9,7 km/h
24.04.2019 23:20 17,6 C 8,4 C 54 % 89 % 1006,7 hPa 0,2 l/m 6,4 km/h S-SW 202 6,7 C 8,4 C 11,3 km/h
24.04.2019 23:15 17,6 C 8,6 C 54 % 88 % 1006,5 hPa 0,0 l/m 6,4 km/h S-SW 202 6,7 C 8,6 C 12,9 km/h
24.04.2019 23:10 17,6 C 8,7 C 54 % 87 % 1006,8 hPa 0,0 l/m 8,0 km/h SW 225 6,7 C 7,5 C 14,5 km/h
24.04.2019 23:05 17,6 C 8,6 C 54 % 87 % 1006,2 hPa 0,0 l/m 1,6 km/h N 360 6,6 C 8,6 C 3,2 km/h
24.04.2019 23:00 17,6 C 8,6 C 54 % 87 % 1006,0 hPa 0,0 l/m 1,6 km/h N 360 6,6 C 8,6 C 4,8 km/h
24.04.2019 22:55 17,6 C 8,6 C 53 % 87 % 1005,8 hPa 0,0 l/m 3,2 km/h N 360 6,6 C 8,6 C 8,0 km/h
24.04.2019 22:50 17,7 C 8,7 C 53 % 86 % 1005,7 hPa 0,0 l/m 6,4 km/h N 360 6,5 C 8,7 C 9,7 km/h
24.04.2019 22:45 17,7 C 8,8 C 53 % 85 % 1006,1 hPa 0,0 l/m 3,2 km/h N-NW 337 6,4 C 8,8 C 8,0 km/h
24.04.2019 22:40 17,7 C 8,8 C 53 % 85 % 1006,3 hPa 0,0 l/m 0,0 km/h W-NW 292 6,4 C 8,8 C 3,2 km/h
24.04.2019 22:35 17,7 C 8,8 C 53 % 85 % 1006,2 hPa 0,0 l/m 4,8 km/h W 270 6,4 C 8,8 C 11,3 km/h
24.04.2019 22:30 17,8 C 8,9 C 53 % 85 % 1006,6 hPa 0,0 l/m 11,3 km/h W-SW 247 6,5 C 5,6 C 22,5 km/h
24.04.2019 22:25 17,8 C 8,9 C 53 % 85 % 1007,0 hPa 0,0 l/m 16,1 km/h W-SW 247 6,5 C 3,3 C 24,1 km/h
24.04.2019 22:20 17,9 C 9,1 C 53 % 84 % 1007,3 hPa 0,0 l/m 19,3 km/h W-SW 247 6,5 C 2,4 C 29,0 km/h
24.04.2019 22:15 17,9 C 9,1 C 53 % 84 % 1006,8 hPa 0,0 l/m 17,7 km/h W-SW 247 6,5 C 2,9 C 29,0 km/h
24.04.2019 22:10 17,9 C 9,2 C 53 % 85 % 1007,2 hPa 0,0 l/m 14,5 km/h SW 225 6,8 C 4,4 C 20,9 km/h
24.04.2019 22:05 17,8 C 9,2 C 53 % 85 % 1007,5 hPa 0,0 l/m 12,9 km/h SW 225 6,8 C 5,1 C 20,9 km/h
24.04.2019 22:00 17,8 C 9,2 C 53 % 84 % 1006,7 hPa 0,0 l/m 12,9 km/h W-SW 247 6,6 C 5,1 C 19,3 km/h
24.04.2019 21:55 17,8 C 9,2 C 53 % 84 % 1006,0 hPa 0,0 l/m 17,7 km/h W-SW 247 6,6 C 3,1 C 25,7 km/h
24.04.2019 21:50 17,9 C 9,2 C 52 % 84 % 1005,9 hPa 0,0 l/m 22,5 km/h W-SW 247 6,6 C 1,5 C 33,8 km/h
24.04.2019 21:45 18,0 C 9,3 C 52 % 83 % 1005,7 hPa 0,0 l/m 24,1 km/h W-SW 247 6,6 C 1,1 C 37,0 km/h
24.04.2019 21:40 18,1 C 9,4 C 52 % 83 % 1005,5 hPa 0,0 l/m 29,0 km/h W-SW 247 6,7 C 0,0 C 41,8 km/h
24.04.2019 21:35 18,2 C 9,4 C 52 % 83 % 1005,3 hPa 0,0 l/m 27,4 km/h W-SW 247 6,7 C 0,4 C 41,8 km/h
24.04.2019 21:30 18,3 C 9,4 C 52 % 83 % 1005,4 hPa 0,0 l/m 24,1 km/h W-SW 247 6,7 C 1,3 C 35,4 km/h
24.04.2019 21:25 18,3 C 9,4 C 51 % 83 % 1005,4 hPa 0,0 l/m 25,7 km/h W-SW 247 6,7 C 0,8 C 38,6 km/h
24.04.2019 21:20 18,4 C 9,6 C 51 % 82 % 1005,7 hPa 0,0 l/m 30,6 km/h W-SW 247 6,7 C -0,0 C 48,3 km/h
24.04.2019 21:15 18,6 C 9,7 C 51 % 82 % 1005,5 hPa 0,0 l/m 32,2 km/h W-SW 247 6,8 C -0,2 C 45,1 km/h
24.04.2019 21:10 18,8 C 9,8 C 50 % 81 % 1005,0 hPa 0,0 l/m 33,8 km/h W-SW 247 6,7 C -0,4 C 49,9 km/h
24.04.2019 21:05 18,9 C 9,9 C 50 % 81 % 1004,7 hPa 0,0 l/m 40,2 km/h W-SW 247 6,8 C -1,3 C 59,5 km/h
24.04.2019 21:00 19,1 C 10,1 C 50 % 83 % 1004,6 hPa 0,0 l/m 35,4 km/h W-SW 247 7,3 C -0,2 C 45,1 km/h
_ Min-Zeit 06:15 07:05 17:35 18:45 19:20 - 22:40 - - 06:55 21:05 23:50
Minimum _ 15,5 C 5,0 C 28 % 37 % 1003,4 hPa - 0,0 km/h - - 4,2 C -1,3 C 0,0 km/h
_ Max-Zeit 18:45 18:45 04:00 08:40 10:00 23:20 21:05 - - 20:00 19:25 21:05
Maximum _ 29,8 C 22,9 C 57 % 96 % 1009,2 hPa 0,2 l/m 40,2 km/h
W-SW
- - 9,9 C 22,6 C 59,5 km/h
W-SW
Durchschnitt _ 21,6 C 11,9 C 45 % 75 % 1006,6 hPa #0,2 l/m 11,4 km/h O-SO - 6,8 C 9,5 C 16,6 km/h